Impacts METAR Board INFO
IDs:

KJFK - New York/Kennedy Int, NY, US

Updated at: 0555 UTC 17 Dec 2017
Potential Impact None Slight Moderate High
Time16/17Z 16/18Z 16/19Z 16/20Z 16/21Z 16/22Z 16/23Z 17/00Z 17/01Z 17/02Z 17/03Z 17/04Z 17/05Z
VIS10 10 10 10 10 10 10 10 10 10 10 10 10
CIG130 250 48 42 45 47 55 60 40 60 48 48 43
CoverBKNBKNBKNBKNOVCOVCOVCOVCOVCOVCBKNOVCOVC
FltCatVFRVFRVFRVFRVFRVFRVFRVFRVFRVFRVFRVFRVFR
WX--------------------------
WDir250240260260260260260260290340340350350
WSpd18 17 12 12 13 14 12 11 9 11 10 11 10
WGst-- -- -- -- -- -- -- -- -- -- -- -- --
Raw hourly METARs
KJFK 161651Z 25018KT 10SM FEW050 BKN130 BKN250 02/M06 A3004 RMK AO2 SLP171 T00171056 $
KJFK 161751Z 24017KT 10SM SCT050 SCT060 BKN250 02/M04 A3001 RMK AO2 SLP162 T00171039 10022 21033 58027 $
KJFK 161851Z 26012KT 10SM BKN048 BKN070 BKN250 03/M04 A3000 RMK AO2 SLP159 T00281039 $
KJFK 161951Z 26012KT 10SM BKN042 BKN065 BKN250 03/M03 A3001 RMK AO2 SLP161 T00281033
KJFK 162051Z 26013KT 10SM FEW035 OVC045 03/M03 A3002 RMK AO2 SLP164 T00331033 53002
KJFK 162151Z 26014KT 10SM BKN047 OVC055 03/M03 A3004 RMK AO2 SLP172 T00331028
KJFK 162251Z 26012KT 10SM SCT047 OVC055 03/M03 A3007 RMK AO2 SLP182 T00331028
KJFK 162351Z 26011KT 10SM SCT049 OVC060 04/M03 A3010 RMK AO2 SLP192 T00391028 10039 20017 53027
KJFK 170051Z 29009KT 10SM OVC040 04/M03 A3015 RMK AO2 SLP207 T00391033
KJFK 170151Z 34011KT 10SM BKN060 OVC080 03/M03 A3016 RMK AO2 SLP213 T00281028
KJFK 170251Z 34010KT 10SM BKN048 BKN060 BKN080 02/M03 A3019 RMK AO2 SLP222 T00221033 51030
KJFK 170351Z 35011KT 10SM FEW038 BKN048 OVC060 02/M04 A3020 RMK AO2 SLP228 T00171044
KJFK 170451Z 35010KT 10SM FEW037 BKN043 OVC060 01/M06 A3022 RMK AO2 SLP232 T00111056 400391044